Terminal Aerodrome Forecast
Issued by NWS

Home | Current Version | Previous Version | Text Only | Print | Product List | Glossary On
Versions: 1 2 3 4 5 6 7 8 9 10 11 12 13 14 15
289
FTUS41 KBGM 221736 AAA
TAFELM
TAF AMD
KELM 221736Z 2218/2318 VRB03KT P6SM SCT050 SCT100
     FM222100 18003KT P6SM BKN035 BKN100
      TEMPO 2309/2313 5SM BR BKN025
     FM231500 20007KT P6SM BKN040=

USA.gov is the U.S. government's official web portal to all federal, state and local government web resources and services.